Atlanta, MI

12:38 PM EDT on March 29, 2015 (GMT -0400)
Moon Lake | | Change Station
CLOSE
Current Station
Personal Weather Station
Location: Lewiston, MI
Elevation: 1240 ft
Nearby Weather Stations

Elev 1240 ft 44.84 °N, 84.26 °W | Updated 9 seconds ago

Partly Cloudy
Partly Cloudy
40.0 °F
Feels Like 40 °F
N
2.5
Wind Variable Wind from SW
Gusts 4.7 mph

Today
High -- | Low -- °F
--% Chance of Precip.
Yesterday
High -- | Low -- °F
Precip. -- in
7:23 AM 8:00 PM
Waxing Gibbous, 72% visible
Pressure 29.91 in
Visibility 10.0 miles
Clouds Clear
Windchill 40 °F
Dew Point 10 °F
Humidity 29%
Rainfall 0.00 in
Snow Depth Not available.
UV 6 out of 12
Pollen 3.10 out of 12
Air Quality Not available.
Flu Activity Not available.
METAR KGLR 291553Z AUTO 20018G31KT 10SM CLR 02/M12 A2985 RMK AO2 PK WND 21031/1549 SLP127 T00221122

More Conditions Fewer Conditions

Pressure 29.91 in
Visibility 10.0 miles
Clouds Clear
Windchill 40 °F
Dew Point 10 °F
Humidity 29%
Rainfall 0.00 in
Snow Depth Not available.
UV 6 out of 12
Pollen 3.10 out of 12
Air Quality Not available.
Flu Activity Not available.
METAR KGLR 291553Z AUTO 20018G31KT 10SM CLR 02/M12 A2985 RMK AO2 PK WND 21031/1549 SLP127 T00221122

More Conditions Fewer Conditions

Nowcast | as of 12:00 PM EDT on March 29, 2015

Southwest winds 15 mph. Periods of rain and snow. South winds 17 mph with gusts to 35 mph. At 5 PM...periods of rain. Temperature 37. South winds 20 mph with gusts to 35 mph. Periods of snow. Southwest winds 17 mph with gusts to 30 mph.

×

10-Day Weather Forecast

Almanac

Astronomy

Mar. 29, 2015 Rise Set
Actual Time
Civil Twilight
Nautical Twilight
Astronomical Twilight
Moon
Length of Visible Light
Length of Day
Tomorrow will be .
, % of the Moon is Illuminated

Today's Extremes

State Highs State Lows

Community

WunderPhotos

Upload Photos

1,809,287 photos uploaded!

WunderBlogs® & News

Nearby

Air Quality

  Air Quality AQ Index Pollutant
Not available.

Snow Depth

Station Depth Elevation

Earthquake Activity

City Distance Mag. Time & Date
Minimum magnitude displayed is 2.5.

Coastal Water Temperatures

Place Temperature

Stations

Nearby Weather Stations

Station Location Temp. Windchill Dew Point Humidity Wind Precip. Elev Updated Type